createdAt,value
2024-05-09T00:00:39.703Z,50.852795
2024-05-09T00:01:36.374Z,50.852787
2024-05-09T00:02:36.395Z,50.852737
2024-05-09T00:03:36.363Z,50.852707
2024-05-09T00:04:36.353Z,50.852749
2024-05-09T00:05:37.028Z,50.852730
2024-05-09T00:06:36.297Z,50.852745
2024-05-09T00:07:36.310Z,50.852776
2024-05-09T00:08:36.383Z,50.852764
2024-05-09T00:09:36.282Z,50.852787
2024-05-09T00:10:38.623Z,50.852776
2024-05-09T00:11:36.320Z,50.852798
2024-05-09T00:12:36.292Z,50.852802
2024-05-09T00:13:36.280Z,50.852814
2024-05-09T00:14:36.291Z,50.852821
2024-05-09T00:15:36.803Z,50.852798
2024-05-09T00:16:36.253Z,50.852829
2024-05-09T00:17:36.342Z,50.852802
2024-05-09T00:18:36.368Z,50.852859
2024-05-09T00:19:36.285Z,50.852802
2024-05-09T00:20:39.699Z,50.852810
2024-05-09T00:21:36.213Z,50.852795
2024-05-09T00:22:36.210Z,50.852802
2024-05-09T00:23:36.291Z,50.852802
2024-05-09T00:24:36.195Z,50.852795
2024-05-09T00:25:36.203Z,50.852802
2024-05-09T00:26:36.295Z,50.852814
2024-05-09T00:27:36.197Z,50.852859
2024-05-09T00:28:36.223Z,50.852810
2024-05-09T00:29:36.249Z,50.852795
2024-05-09T00:30:37.300Z,50.852802
2024-05-09T00:31:36.158Z,50.852821
2024-05-09T00:32:36.446Z,50.852863
2024-05-09T00:33:36.218Z,50.852863
2024-05-09T00:34:36.167Z,50.852890
2024-05-09T00:35:36.326Z,50.852818
2024-05-09T00:36:36.134Z,50.852829
2024-05-09T00:37:36.123Z,50.852806
2024-05-09T00:38:36.245Z,50.852810
2024-05-09T00:39:36.123Z,50.852795
2024-05-09T00:40:39.900Z,50.852772
2024-05-09T00:41:37.303Z,50.852787
2024-05-09T00:42:36.115Z,50.852791
2024-05-09T00:43:36.091Z,50.852795
2024-05-09T00:44:36.150Z,50.852798
2024-05-09T00:45:36.275Z,50.852787
2024-05-09T00:46:36.112Z,50.852798
2024-05-09T00:47:36.249Z,50.852783
2024-05-09T00:48:36.223Z,50.852757
2024-05-09T00:49:36.195Z,50.852757
2024-05-09T00:50:37.628Z,50.852737
2024-05-09T00:51:36.051Z,50.852753
2024-05-09T00:52:36.039Z,50.852760
2024-05-09T00:53:36.075Z,50.852798
2024-05-09T00:54:36.035Z,50.852783
2024-05-09T00:55:36.059Z,50.852795
2024-05-09T00:56:36.075Z,50.852779
2024-05-09T00:57:36.010Z,50.852814
2024-05-09T00:58:36.007Z,50.852810
2024-05-09T00:59:36.091Z,50.852783
2024-05-09T01:00:39.723Z,50.852791
2024-05-09T01:01:37.170Z,50.852802
2024-05-09T01:02:36.086Z,50.852764
2024-05-09T01:03:36.129Z,50.852806
2024-05-09T01:04:36.068Z,50.852810
2024-05-09T01:05:36.067Z,50.852798
2024-05-09T01:06:35.969Z,50.852802
2024-05-09T01:07:35.991Z,50.852829
2024-05-09T01:08:36.070Z,50.852806
2024-05-09T01:09:35.951Z,50.852810
2024-05-09T01:10:36.639Z,50.852833
2024-05-09T01:11:36.054Z,50.852798
2024-05-09T01:12:35.995Z,50.852844
2024-05-09T01:13:35.949Z,50.852852
2024-05-09T01:14:35.939Z,50.852833
2024-05-09T01:15:36.108Z,50.852787
2024-05-09T01:16:35.903Z,50.852787
2024-05-09T01:17:36.043Z,50.852795
2024-05-09T01:18:36.022Z,50.852798
2024-05-09T01:19:35.958Z,50.852791
2024-05-09T01:20:41.753Z,50.852779
2024-05-09T01:21:36.890Z,50.852840
2024-05-09T01:22:35.880Z,50.852829
2024-05-09T01:23:35.935Z,50.852825
2024-05-09T01:24:35.902Z,50.852829
2024-05-09T01:25:35.907Z,50.852837
2024-05-09T01:26:35.873Z,50.852837
2024-05-09T01:27:35.850Z,50.852856
2024-05-09T01:28:35.838Z,50.852825
2024-05-09T01:29:35.946Z,50.852798
2024-05-09T01:30:37.521Z,50.852802
2024-05-09T01:31:35.865Z,50.852818
2024-05-09T01:32:35.919Z,50.852814
2024-05-09T01:33:35.962Z,50.852795
2024-05-09T01:34:35.838Z,50.852840
2024-05-09T01:35:35.924Z,50.852806
2024-05-09T01:36:35.821Z,50.852844
2024-05-09T01:37:35.829Z,50.852802
2024-05-09T01:38:35.875Z,50.852791
2024-05-09T01:39:35.778Z,50.852787
2024-05-09T01:40:38.922Z,50.852837
2024-05-09T01:41:35.798Z,50.852825
2024-05-09T01:42:35.766Z,50.852806
2024-05-09T01:43:35.772Z,50.852802
2024-05-09T01:44:35.775Z,50.852825
2024-05-09T01:45:35.757Z,50.852791
2024-05-09T01:46:35.739Z,50.852760
2024-05-09T01:47:35.824Z,50.852798
2024-05-09T01:48:35.808Z,50.852833
2024-05-09T01:49:35.817Z,50.852833
2024-05-09T01:50:39.881Z,50.852829
2024-05-09T01:51:36.724Z,50.852791
2024-05-09T01:52:35.709Z,50.852757
2024-05-09T01:53:35.774Z,50.852818
2024-05-09T01:54:35.723Z,50.852821
2024-05-09T01:55:35.726Z,50.852798
2024-05-09T01:56:35.763Z,50.852757
2024-05-09T01:57:35.684Z,50.852772
2024-05-09T01:58:35.684Z,50.852829
2024-05-09T01:59:35.705Z,50.852825
2024-05-09T02:00:40.110Z,50.852795
2024-05-09T02:01:55.606Z,50.852810
2024-05-09T02:02:36.717Z,50.852818
2024-05-09T02:03:35.764Z,50.852829
2024-05-09T02:04:35.727Z,50.852821
2024-05-09T02:05:35.841Z,50.852829
2024-05-09T02:06:35.661Z,50.852787
2024-05-09T02:07:35.644Z,50.852802
2024-05-09T02:08:35.779Z,50.852821
2024-05-09T02:09:35.626Z,50.852844
2024-05-09T02:10:35.618Z,50.852821
2024-05-09T02:11:35.722Z,50.852810
2024-05-09T02:12:35.635Z,50.852829
2024-05-09T02:13:35.600Z,50.852829
2024-05-09T02:14:35.676Z,50.852829
2024-05-09T02:15:35.590Z,50.852798
2024-05-09T02:16:35.579Z,50.852798
2024-05-09T02:17:35.705Z,50.852795
2024-05-09T02:18:35.623Z,50.852829
2024-05-09T02:19:35.649Z,50.852814
2024-05-09T02:20:36.899Z,50.852787
2024-05-09T02:21:35.562Z,50.852795
2024-05-09T02:22:35.599Z,50.852776
2024-05-09T02:23:35.578Z,50.852787
2024-05-09T02:24:35.574Z,50.852829
2024-05-09T02:25:35.566Z,50.852772
2024-05-09T02:26:35.560Z,50.852760
2024-05-09T02:27:35.529Z,50.852779
2024-05-09T02:28:35.542Z,50.852795
2024-05-09T02:29:35.549Z,50.852802
2024-05-09T02:30:40.000Z,50.852787
2024-05-09T02:31:36.503Z,50.852818
2024-05-09T02:32:35.690Z,50.852802
2024-05-09T02:33:35.689Z,50.852814
2024-05-09T02:34:35.566Z,50.852833
2024-05-09T02:35:35.574Z,50.852848
2024-05-09T02:36:35.476Z,50.852821
2024-05-09T02:37:35.467Z,50.852783
2024-05-09T02:38:35.585Z,50.852798
2024-05-09T02:39:35.457Z,50.852798
2024-05-09T02:40:38.286Z,50.852833
2024-05-09T02:41:35.518Z,50.852848
2024-05-09T02:42:35.443Z,50.852814
2024-05-09T02:43:35.479Z,50.852833
2024-05-09T02:44:35.449Z,50.852837
2024-05-09T02:45:35.426Z,50.852856
2024-05-09T02:46:35.433Z,50.852848
2024-05-09T02:47:35.546Z,50.852783
2024-05-09T02:48:35.481Z,50.852806
2024-05-09T02:49:35.515Z,50.852810
2024-05-09T02:50:39.029Z,50.852821
2024-05-09T02:51:35.397Z,50.852844
2024-05-09T02:52:35.424Z,50.852844
2024-05-09T02:53:35.487Z,50.852810
2024-05-09T02:54:35.380Z,50.852833
2024-05-09T02:55:35.403Z,50.852833
2024-05-09T02:56:35.459Z,50.852863
2024-05-09T02:57:35.372Z,50.852833
2024-05-09T02:58:35.363Z,50.852821
2024-05-09T02:59:35.382Z,50.852806
2024-05-09T03:00:39.633Z,50.852825
2024-05-09T03:01:36.437Z,50.852856
2024-05-09T03:02:35.471Z,50.852844
2024-05-09T03:03:35.507Z,50.852837
2024-05-09T03:04:35.336Z,50.852810
2024-05-09T03:05:35.588Z,50.852840
2024-05-09T03:06:35.339Z,50.852833
2024-05-09T03:07:35.328Z,50.852798
2024-05-09T03:08:35.375Z,50.852840
2024-05-09T03:09:35.293Z,50.852806
2024-05-09T03:10:37.696Z,50.852825
2024-05-09T03:11:35.385Z,50.852821
2024-05-09T03:12:37.973Z,50.852833
2024-05-09T03:13:35.289Z,50.852833
2024-05-09T03:14:35.339Z,50.852833
2024-05-09T03:15:35.276Z,50.852829
2024-05-09T03:16:35.272Z,50.852844
2024-05-09T03:17:35.502Z,50.852844
2024-05-09T03:18:35.339Z,50.852821
2024-05-09T03:19:35.267Z,50.852802
2024-05-09T03:20:36.405Z,50.852818
2024-05-09T03:21:35.249Z,50.852814
2024-05-09T03:22:35.230Z,50.852856
2024-05-09T03:23:35.229Z,50.852829
2024-05-09T03:24:35.204Z,50.852833
2024-05-09T03:25:35.199Z,50.852829
2024-05-09T03:26:35.298Z,50.852871
2024-05-09T03:27:35.188Z,50.852863
2024-05-09T03:28:35.189Z,50.852909
2024-05-09T03:29:35.218Z,50.852890
2024-05-09T03:30:40.527Z,50.852875
2024-05-09T03:31:36.210Z,50.852837
2024-05-09T03:32:35.323Z,50.852898
2024-05-09T03:33:35.520Z,50.852871
2024-05-09T03:34:35.152Z,50.852867
2024-05-09T03:35:35.222Z,50.852947
2024-05-09T03:36:35.149Z,50.852894
2024-05-09T03:37:35.154Z,50.852844
2024-05-09T03:38:35.313Z,50.852867
2024-05-09T03:39:35.134Z,50.852867
2024-05-09T03:40:35.133Z,50.852924
2024-05-09T03:41:35.181Z,50.852905
2024-05-09T03:42:35.124Z,50.852905
2024-05-09T03:43:35.139Z,50.852818
2024-05-09T03:44:35.163Z,50.852844
2024-05-09T03:45:35.093Z,50.852829
2024-05-09T03:46:35.089Z,50.852859
2024-05-09T03:47:35.286Z,50.852848
2024-05-09T03:48:35.117Z,50.852837
2024-05-09T03:49:35.146Z,50.852829
2024-05-09T03:50:36.331Z,50.852825
2024-05-09T03:51:35.092Z,50.852814
2024-05-09T03:52:35.044Z,50.852833
2024-05-09T03:53:35.166Z,50.852791
2024-05-09T03:54:35.065Z,50.852825
2024-05-09T03:55:35.045Z,50.852825
2024-05-09T03:56:35.094Z,50.852818
2024-05-09T03:57:35.053Z,50.852840
2024-05-09T03:58:35.028Z,50.852810
2024-05-09T03:59:35.069Z,50.852814
2024-05-09T04:00:38.607Z,50.852821
2024-05-09T04:01:36.066Z,50.852844
2024-05-09T04:02:35.089Z,50.852821
2024-05-09T04:03:35.100Z,50.852852
2024-05-09T04:04:35.105Z,50.852844
2024-05-09T04:05:35.271Z,50.852848
2024-05-09T04:06:34.998Z,50.852840
2024-05-09T04:07:34.976Z,50.852829
2024-05-09T04:08:35.089Z,50.852833
2024-05-09T04:09:34.973Z,50.852837
2024-05-09T04:10:35.535Z,50.852833
2024-05-09T04:11:35.056Z,50.852833
2024-05-09T04:12:34.987Z,50.852840
2024-05-09T04:13:34.932Z,50.852848
2024-05-09T04:14:35.017Z,50.852848
2024-05-09T04:15:34.951Z,50.852856
2024-05-09T04:16:34.916Z,50.852829
2024-05-09T04:17:35.086Z,50.852837
2024-05-09T04:18:35.032Z,50.852840
2024-05-09T04:19:34.996Z,50.852856
2024-05-09T04:20:39.022Z,50.852848
2024-05-09T04:21:35.904Z,50.852840
2024-05-09T04:22:34.892Z,50.852829
2024-05-09T04:23:35.066Z,50.852833
2024-05-09T04:24:34.884Z,50.852837
2024-05-09T04:25:35.012Z,50.852821
2024-05-09T04:26:34.940Z,50.852818
2024-05-09T04:27:34.853Z,50.852840
2024-05-09T04:28:34.873Z,50.852821
2024-05-09T04:29:34.898Z,50.852814
2024-05-09T04:30:39.042Z,50.852833
2024-05-09T04:31:35.843Z,50.852814
2024-05-09T04:32:35.006Z,50.852837
2024-05-09T04:33:35.102Z,50.852844
2024-05-09T04:34:34.973Z,50.852848
2024-05-09T04:35:34.850Z,50.852776
2024-05-09T04:36:34.812Z,50.852779
2024-05-09T04:37:34.810Z,50.852818
2024-05-09T04:38:34.922Z,50.852905
2024-05-09T04:39:34.798Z,50.852810
2024-05-09T04:40:36.755Z,50.852833
2024-05-09T04:41:34.858Z,50.852806
2024-05-09T04:42:34.771Z,50.852802
2024-05-09T04:43:34.769Z,50.852802
2024-05-09T04:44:34.778Z,50.852818
2024-05-09T04:45:35.121Z,50.852818
2024-05-09T04:46:34.761Z,50.852810
2024-05-09T04:47:34.887Z,50.852798
2024-05-09T04:48:34.805Z,50.852810
2024-05-09T04:49:34.947Z,50.852821
2024-05-09T04:50:38.246Z,50.852844
2024-05-09T04:51:34.747Z,50.852833
2024-05-09T04:52:34.725Z,50.852844
2024-05-09T04:53:34.775Z,50.852829
2024-05-09T04:54:36.576Z,50.852806
2024-05-09T04:55:34.744Z,50.852818
2024-05-09T04:56:34.772Z,50.852844
2024-05-09T04:57:34.715Z,50.852840
2024-05-09T04:58:34.718Z,50.852856
2024-05-09T04:59:34.755Z,50.852852
2024-05-09T05:00:37.373Z,50.852852
2024-05-09T05:01:34.746Z,50.852848
2024-05-09T05:02:34.754Z,50.852829
2024-05-09T05:03:34.804Z,50.852810
2024-05-09T05:04:34.687Z,50.852795
2024-05-09T05:05:34.718Z,50.852791
2024-05-09T05:06:34.690Z,50.852810
2024-05-09T05:07:34.643Z,50.852798
2024-05-09T05:08:34.722Z,50.852810
2024-05-09T05:09:34.631Z,50.852798
2024-05-09T05:10:36.577Z,50.852783
2024-05-09T05:11:34.727Z,50.852772
2024-05-09T05:12:34.818Z,50.852783
2024-05-09T05:13:36.653Z,50.852806
2024-05-09T05:14:34.646Z,50.852783
2024-05-09T05:15:34.599Z,50.852798
2024-05-09T05:16:34.589Z,50.852806
2024-05-09T05:17:34.831Z,50.852787
2024-05-09T05:18:34.674Z,50.852798
2024-05-09T05:19:34.763Z,50.852795
2024-05-09T05:20:34.741Z,50.852791
2024-05-09T05:21:34.648Z,50.852795
2024-05-09T05:22:34.559Z,50.852798
2024-05-09T05:23:34.793Z,50.852791
2024-05-09T05:24:34.560Z,50.852787
2024-05-09T05:25:34.565Z,50.852821
2024-05-09T05:26:34.764Z,50.852818
2024-05-09T05:27:34.532Z,50.852829
2024-05-09T05:28:34.543Z,50.852814
2024-05-09T05:29:34.658Z,50.852825
2024-05-09T05:30:35.190Z,50.852814
2024-05-09T05:31:34.538Z,50.852795
2024-05-09T05:32:34.730Z,50.852821
2024-05-09T05:33:34.659Z,50.852802
2024-05-09T05:34:34.491Z,50.852818
2024-05-09T05:35:34.793Z,50.852833
2024-05-09T05:36:34.481Z,50.852852
2024-05-09T05:37:34.466Z,50.852806
2024-05-09T05:38:34.549Z,50.852802
2024-05-09T05:39:34.500Z,50.852768
2024-05-09T05:40:37.221Z,50.852753
2024-05-09T05:41:34.544Z,50.852783
2024-05-09T05:42:34.441Z,50.852791
2024-05-09T05:43:34.438Z,50.852783
2024-05-09T05:44:34.457Z,50.852791
2024-05-09T05:45:34.451Z,50.852829
2024-05-09T05:46:34.419Z,50.852749
2024-05-09T05:47:34.729Z,50.852768
2024-05-09T05:48:34.558Z,50.852795
2024-05-09T05:49:34.485Z,50.852779
2024-05-09T05:50:37.000Z,50.852795
2024-05-09T05:51:34.410Z,50.852798
2024-05-09T05:52:34.390Z,50.852787
2024-05-09T05:53:34.725Z,50.852772
2024-05-09T05:54:34.375Z,50.852837
2024-05-09T05:55:34.405Z,50.852818
2024-05-09T05:56:34.439Z,50.852749
2024-05-09T05:57:34.372Z,50.852802
2024-05-09T05:58:34.351Z,50.852791
2024-05-09T05:59:34.519Z,50.852783
2024-05-09T06:00:38.436Z,50.852806
2024-05-09T06:01:35.419Z,50.852806
2024-05-09T06:02:34.470Z,50.852795
2024-05-09T06:03:34.355Z,50.852749
2024-05-09T06:04:34.426Z,50.852764
2024-05-09T06:05:34.376Z,50.852825
2024-05-09T06:06:34.339Z,50.852795
2024-05-09T06:07:34.313Z,50.852768
2024-05-09T06:08:34.387Z,50.852840
2024-05-09T06:09:34.301Z,50.852818
2024-05-09T06:10:38.528Z,50.852810
2024-05-09T06:11:35.369Z,50.852795
2024-05-09T06:12:34.280Z,50.852814
2024-05-09T06:13:34.284Z,50.852821
2024-05-09T06:14:34.323Z,50.852818
2024-05-09T06:15:34.432Z,50.852844
2024-05-09T06:16:34.265Z,50.852844
2024-05-09T06:17:34.388Z,50.852837
2024-05-09T06:18:34.347Z,50.852810
2024-05-09T06:19:34.302Z,50.852840
2024-05-09T06:20:37.124Z,50.852821
2024-05-09T06:21:34.284Z,50.852776
2024-05-09T06:22:34.214Z,50.852768
2024-05-09T06:23:34.336Z,50.852783
2024-05-09T06:24:34.210Z,50.852795
2024-05-09T06:25:34.214Z,50.852791
2024-05-09T06:26:34.256Z,50.852802
2024-05-09T06:27:34.208Z,50.852810
2024-05-09T06:28:34.179Z,50.852806
2024-05-09T06:29:34.193Z,50.852802
2024-05-09T06:30:38.530Z,50.852795
2024-05-09T06:31:35.168Z,50.852821
2024-05-09T06:32:34.334Z,50.852806
2024-05-09T06:33:34.642Z,50.852795
2024-05-09T06:34:34.204Z,50.852825
2024-05-09T06:35:34.401Z,50.852829
2024-05-09T06:36:34.138Z,50.852787
2024-05-09T06:37:34.128Z,50.852825
2024-05-09T06:38:34.300Z,50.852818
2024-05-09T06:39:34.130Z,50.852802
2024-05-09T06:40:37.911Z,50.852837
2024-05-09T06:41:35.140Z,50.852802
2024-05-09T06:42:34.093Z,50.852818
2024-05-09T06:43:34.104Z,50.852825
2024-05-09T06:44:34.160Z,50.852791
2024-05-09T06:45:34.069Z,50.852806
2024-05-09T06:46:34.071Z,50.852829
2024-05-09T06:47:34.259Z,50.852814
2024-05-09T06:48:34.304Z,50.852829
2024-05-09T06:49:34.113Z,50.852791
2024-05-09T06:50:37.772Z,50.852848
2024-05-09T06:51:35.062Z,50.852848
2024-05-09T06:52:34.020Z,50.852837
2024-05-09T06:53:34.188Z,50.852844
2024-05-09T06:54:34.040Z,50.852825
2024-05-09T06:55:34.023Z,50.852802
2024-05-09T06:56:34.110Z,50.852814
2024-05-09T06:57:34.003Z,50.852802
2024-05-09T06:58:33.976Z,50.852818
2024-05-09T06:59:33.999Z,50.852802
2024-05-09T07:00:38.671Z,50.852787
2024-05-09T07:01:35.017Z,50.852806
2024-05-09T07:02:34.149Z,50.852818
2024-05-09T07:03:34.059Z,50.852798
2024-05-09T07:04:34.144Z,50.852783
2024-05-09T07:05:34.054Z,50.852829
2024-05-09T07:06:33.942Z,50.852802
2024-05-09T07:07:33.922Z,50.852810
2024-05-09T07:08:34.087Z,50.852795
2024-05-09T07:09:33.900Z,50.852818
2024-05-09T07:10:35.553Z,50.852814
2024-05-09T07:11:33.991Z,50.852802
2024-05-09T07:12:34.045Z,50.852783
2024-05-09T07:13:33.906Z,50.852810
2024-05-09T07:14:34.750Z,50.852787
2024-05-09T07:15:33.857Z,50.852787
2024-05-09T07:16:33.852Z,50.852795
2024-05-09T07:17:33.883Z,50.852760
2024-05-09T07:18:33.924Z,50.852814
2024-05-09T07:19:33.883Z,50.852802
2024-05-09T07:20:35.118Z,50.852829
2024-05-09T07:21:33.804Z,50.852879
2024-05-09T07:22:33.795Z,50.852863
2024-05-09T07:23:33.980Z,50.852848
2024-05-09T07:24:33.798Z,50.852859
2024-05-09T07:25:33.766Z,50.852810
2024-05-09T07:26:33.891Z,50.852814
2024-05-09T07:27:33.745Z,50.852829
2024-05-09T07:28:33.754Z,50.852844
2024-05-09T07:29:36.272Z,50.852859
2024-05-09T07:30:34.824Z,50.852947
2024-05-09T07:31:33.753Z,50.852985
2024-05-09T07:32:33.984Z,50.852913
2024-05-09T07:33:33.783Z,50.852871
2024-05-09T07:34:33.794Z,50.852875
2024-05-09T07:35:33.860Z,50.852921
2024-05-09T07:36:33.698Z,50.852875
2024-05-09T07:37:33.699Z,50.852810
2024-05-09T07:38:33.706Z,50.852806
2024-05-09T07:39:33.681Z,50.852814
2024-05-09T07:40:36.531Z,50.852802
2024-05-09T07:41:33.754Z,50.852795
2024-05-09T07:42:33.628Z,50.852821
2024-05-09T07:43:33.628Z,50.852760
2024-05-09T07:44:33.638Z,50.852779
2024-05-09T07:50:34.275Z,50.852768
2024-05-09T07:52:23.089Z,50.852779
2024-05-09T07:53:33.195Z,50.852798
2024-05-09T07:53:42.051Z,50.852802
2024-05-09T07:54:34.684Z,50.852806
2024-05-09T07:55:33.592Z,50.852787
2024-05-09T07:56:33.636Z,50.852798
2024-05-09T07:57:33.648Z,50.852821
2024-05-09T07:58:33.529Z,50.852783
2024-05-09T07:59:37.100Z,50.852776
2024-05-09T08:00:33.643Z,50.852791
2024-05-09T08:01:33.654Z,50.852768
2024-05-09T08:02:33.733Z,50.852798
2024-05-09T08:03:33.753Z,50.852772
2024-05-09T08:04:33.600Z,50.852795
2024-05-09T08:05:33.664Z,50.852776
2024-05-09T08:06:33.477Z,50.852791
2024-05-09T08:07:33.451Z,50.852776
2024-05-09T08:08:33.448Z,50.852810
2024-05-09T08:09:34.676Z,50.852837
2024-05-09T08:10:33.459Z,50.852791
2024-05-09T08:11:33.499Z,50.852806
2024-05-09T08:12:33.437Z,50.852757
2024-05-09T08:13:33.448Z,50.852802
2024-05-09T08:14:33.428Z,50.852779
2024-05-09T08:15:33.443Z,50.852814
2024-05-09T08:16:33.474Z,50.852814
2024-05-09T08:17:33.498Z,50.852829
2024-05-09T08:18:33.684Z,50.852818
2024-05-09T08:19:33.419Z,50.852821
2024-05-09T08:20:35.313Z,50.852875
2024-05-09T08:21:33.394Z,50.852844
2024-05-09T08:22:33.373Z,50.852821
2024-05-09T08:23:33.361Z,50.852821
2024-05-09T08:24:33.394Z,50.852818
2024-05-09T08:25:33.326Z,50.852787
2024-05-09T08:26:33.361Z,50.852821
2024-05-09T08:27:33.338Z,50.852814
2024-05-09T08:28:33.315Z,50.852802
2024-05-09T08:29:33.330Z,50.852791
2024-05-09T08:30:37.013Z,50.852814
2024-05-09T08:31:33.355Z,50.852825
2024-05-09T08:32:33.413Z,50.852814
2024-05-09T08:33:33.520Z,50.852798
2024-05-09T08:34:33.314Z,50.852818
2024-05-09T08:35:33.260Z,50.852818
2024-05-09T08:36:33.297Z,50.852802
2024-05-09T08:37:38.676Z,50.852806
2024-05-09T08:38:34.240Z,50.852806
2024-05-09T08:39:33.351Z,50.852798
2024-05-09T08:40:35.988Z,50.852810
2024-05-09T08:41:33.221Z,50.852810
2024-05-09T08:42:33.241Z,50.852821
2024-05-09T08:43:33.212Z,50.852818
2024-05-09T08:44:33.202Z,50.852776
2024-05-09T08:45:33.275Z,50.852802
2024-05-09T08:46:33.276Z,50.852821
2024-05-09T08:47:33.227Z,50.852829
2024-05-09T08:48:33.458Z,50.852814
2024-05-09T08:49:33.179Z,50.852821
2024-05-09T08:50:38.542Z,50.852802
2024-05-09T08:51:34.161Z,50.852810
2024-05-09T08:52:33.148Z,50.852806
2024-05-09T08:53:33.128Z,50.852814
2024-05-09T08:54:33.188Z,50.852802
2024-05-09T08:55:33.122Z,50.852829
2024-05-09T08:56:33.197Z,50.852821
2024-05-09T08:57:33.121Z,50.852806
2024-05-09T08:58:33.121Z,50.852814
2024-05-09T08:59:33.093Z,50.852810
2024-05-09T09:00:36.996Z,50.852810
2024-05-09T09:01:33.233Z,50.852814
2024-05-09T09:02:33.278Z,50.852818
2024-05-09T09:03:33.381Z,50.852825
2024-05-09T09:04:33.156Z,50.852829
2024-05-09T09:05:33.175Z,50.852848
2024-05-09T09:06:33.090Z,50.852825
2024-05-09T09:07:33.067Z,50.852818
2024-05-09T09:08:33.089Z,50.852810
2024-05-09T09:09:33.097Z,50.852810
2024-05-09T09:10:33.564Z,50.852818
2024-05-09T09:11:33.035Z,50.852814
2024-05-09T09:12:33.080Z,50.852802
2024-05-09T09:13:33.033Z,50.852810
2024-05-09T09:14:33.021Z,50.852798
2024-05-09T09:15:33.336Z,50.852795
2024-05-09T09:16:33.035Z,50.852818
2024-05-09T09:17:33.028Z,50.852779
2024-05-09T09:18:33.297Z,50.852772
2024-05-09T09:19:33.072Z,50.852764
2024-05-09T09:20:36.540Z,50.852821
2024-05-09T09:21:33.003Z,50.852802
2024-05-09T09:22:32.940Z,50.852818
2024-05-09T09:23:32.966Z,50.852833
2024-05-09T09:24:32.957Z,50.852768
2024-05-09T09:25:32.928Z,50.852768
2024-05-09T09:26:32.928Z,50.852749
2024-05-09T09:27:32.944Z,50.852783
2024-05-09T09:28:32.914Z,50.852795
2024-05-09T09:29:32.895Z,50.852818
2024-05-09T09:30:37.317Z,50.852802
2024-05-09T09:31:34.174Z,50.852802
2024-05-09T09:32:33.039Z,50.852829
2024-05-09T09:33:33.382Z,50.852818
2024-05-09T09:34:32.999Z,50.852798
2024-05-09T09:35:32.974Z,50.852802
2024-05-09T09:36:32.908Z,50.852840
2024-05-09T09:37:32.821Z,50.852867
2024-05-09T09:38:32.828Z,50.852879
2024-05-09T09:39:32.834Z,50.852821
2024-05-09T09:40:34.950Z,50.852810
2024-05-09T09:41:32.802Z,50.852848
2024-05-09T09:42:32.827Z,50.852837
2024-05-09T09:43:32.808Z,50.852806
2024-05-09T09:44:33.043Z,50.852779
2024-05-09T09:45:32.797Z,50.852749
2024-05-09T09:46:32.932Z,50.852806
2024-05-09T09:47:32.833Z,50.852928
2024-05-09T09:48:32.816Z,50.852966
2024-05-09T09:49:32.845Z,50.852928
2024-05-09T09:50:34.825Z,50.852825
2024-05-09T09:51:32.790Z,50.852856
2024-05-09T09:52:32.778Z,50.852802
2024-05-09T09:53:32.720Z,50.852825
2024-05-09T09:54:32.739Z,50.852795
2024-05-09T09:55:32.694Z,50.852757
2024-05-09T09:56:32.716Z,50.852779
2024-05-09T09:57:32.762Z,50.852787
2024-05-09T09:58:32.738Z,50.852787
2024-05-09T09:59:32.668Z,50.852795
2024-05-09T10:00:33.804Z,50.852810
2024-05-09T10:01:32.813Z,50.852814
2024-05-09T10:02:32.834Z,50.852802
2024-05-09T10:03:32.875Z,50.852818
2024-05-09T10:04:32.791Z,50.852810
2024-05-09T10:05:32.700Z,50.852791
2024-05-09T10:06:32.692Z,50.852821
2024-05-09T10:07:32.620Z,50.852768
2024-05-09T10:08:32.619Z,50.852821
2024-05-09T10:09:32.625Z,50.852863
2024-05-09T10:10:33.342Z,50.852806
2024-05-09T10:11:37.034Z,50.852791
2024-05-09T10:12:33.742Z,50.852795
2024-05-09T10:13:32.663Z,50.852779
2024-05-09T10:14:32.573Z,50.852791
2024-05-09T10:15:32.643Z,50.852814
2024-05-09T10:16:32.620Z,50.852818
2024-05-09T10:17:32.799Z,50.852776
2024-05-09T10:18:34.385Z,50.852779
2024-05-09T10:19:32.698Z,50.852833
2024-05-09T10:20:33.077Z,50.852829
2024-05-09T10:21:32.558Z,50.852810
2024-05-09T10:22:32.533Z,50.852825
2024-05-09T10:23:32.722Z,50.852806
2024-05-09T10:24:32.559Z,50.852863
2024-05-09T10:25:32.683Z,50.852814
2024-05-09T10:26:32.519Z,50.852802
2024-05-09T10:27:32.505Z,50.852806
2024-05-09T10:28:32.471Z,50.852806
2024-05-09T10:29:32.478Z,50.852764
2024-05-09T10:30:35.997Z,50.852806
2024-05-09T10:31:32.578Z,50.852825
2024-05-09T10:32:32.630Z,50.852787
2024-05-09T10:33:32.652Z,50.852684
2024-05-09T10:34:32.669Z,50.852715
2024-05-09T10:35:32.415Z,50.852638
2024-05-09T10:36:32.456Z,50.852711
2024-05-09T10:37:32.489Z,50.852753
2024-05-09T10:38:32.406Z,50.852776
2024-05-09T10:39:32.445Z,50.852776
2024-05-09T10:40:32.533Z,50.852783
2024-05-09T10:41:32.375Z,50.852798
2024-05-09T10:42:32.470Z,50.852757
2024-05-09T10:43:32.364Z,50.852776
2024-05-09T10:44:32.368Z,50.852818
2024-05-09T10:45:32.401Z,50.852776
2024-05-09T10:46:32.341Z,50.852779
2024-05-09T10:47:32.384Z,50.852772
2024-05-09T10:48:32.547Z,50.852779
2024-05-09T10:49:32.434Z,50.852764
2024-05-09T10:50:34.437Z,50.852787
2024-05-09T10:51:32.361Z,50.852772
2024-05-09T10:52:32.301Z,50.852768
2024-05-09T10:53:32.315Z,50.852772
2024-05-09T10:54:32.331Z,50.852783
2024-05-09T10:55:32.343Z,50.852791
2024-05-09T10:56:32.299Z,50.852783
2024-05-09T10:57:32.298Z,50.852810
2024-05-09T10:58:32.278Z,50.852730
2024-05-09T10:59:32.286Z,50.852757
2024-05-09T11:00:36.030Z,50.852783
2024-05-09T11:01:32.410Z,50.852779
2024-05-09T11:02:32.394Z,50.852772
2024-05-09T11:03:32.432Z,50.852737
2024-05-09T11:04:32.258Z,50.852711
2024-05-09T11:05:32.380Z,50.852741
2024-05-09T11:06:32.314Z,50.852768
2024-05-09T11:07:32.279Z,50.852753
2024-05-09T11:08:35.212Z,50.852734
2024-05-09T11:09:32.344Z,50.852741
2024-05-09T11:10:34.332Z,50.852737
2024-05-09T11:11:32.193Z,50.852745
2024-05-09T11:12:32.286Z,50.852783
2024-05-09T11:13:32.329Z,50.852764
2024-05-09T11:14:32.145Z,50.852795
2024-05-09T11:15:32.177Z,50.852806
2024-05-09T11:16:32.195Z,50.852810
2024-05-09T11:17:32.188Z,50.852818
2024-05-09T11:18:36.206Z,50.852852
2024-05-09T11:19:33.220Z,50.852783
2024-05-09T11:20:35.022Z,50.852791
2024-05-09T11:21:32.106Z,50.852768
2024-05-09T11:22:32.086Z,50.852749
2024-05-09T11:23:32.140Z,50.852741
2024-05-09T11:24:32.087Z,50.852757
2024-05-09T11:25:32.070Z,50.852726
2024-05-09T11:26:32.060Z,50.852764
2024-05-09T11:27:32.100Z,50.852764
2024-05-09T11:28:32.042Z,50.852772
2024-05-09T11:29:32.046Z,50.852783